Weather observations for the past three days for
Dublin / New River Valley
Metric (Imperial)
Date Time (edt) Wind (kph) Vis. (km) Weather Sky Cond. Temperature (ºC) Relative Humidity Wind Chill (°C) Heat Index (°C) Pressure Precipitation (cm)
Air Dwpt 6 hour altimeter (cm) sea level (mb) 1 hr 3 hr 6 hr
Max. Min.
08 21:15 SW 7 16.09 Fair CLR 14.1 0.1 39% 76.07 0.0
08 20:55 S 9 16.09 Fair CLR 14.5 0 37% 76.05 0.0
08 20:35 S 13 16.09 Fair CLR 15.1 0 36% 76.02 0.0
08 20:15 S 9 16.09 Fair CLR 15.6 0 35% 76.02 0.0
08 19:55 S 17 16.09 Fair CLR 16.5 -0.4 19.8 16.5 32% 76.05 0.0
08 19:35 S 13 16.09 Fair CLR 17 -0.2 31% 76.02 0.0
08 19:15 S 19 16.09 Fair CLR 17.7 -0.6 29% 76.02 0.0
08 18:55 S 15 G 30 16.09 Fair CLR 18.1 -0.3 29% 76 0.0
08 18:35 S 13 16.09 Fair CLR 18.5 0.4 30% 76 0.0
08 18:15 S 19 16.09 Fair CLR 18.7 0.1 29% 75.97 0.0
08 17:55 S 17 G 26 16.09 Fair CLR 19 0 28% 75.97 0.0
08 17:35 S 13 G 28 16.09 Partly Cloudy SCT085 19.1 -0.2 27% 75.97 0.0
08 17:15 S 15 16.09 Partly Cloudy SCT085 19.7 -0.5 26% 76 0.0
08 16:55 SW 11 16.09 Partly Cloudy SCT085 19.7 -1.7 24% 76.02 0.0
08 16:35 E 9 16.09 Partly Cloudy SCT080 18.9 -0.9 26% 76.02 0.0
08 16:15 SE 6 16.09 Partly Cloudy SCT080 19 -0.8 26% 76.05 0.0
08 15:55 SW 13 G 33 16.09 Partly Cloudy SCT080 19 -0.5 27% 76.07 0.0
08 15:35 SE 11 16.09 Fair CLR 18.9 -0.1 28% 76.1 0.0
08 15:15 S 15 16.09 Fair CLR 18.5 0.2 29% 76.12 0.0
08 14:55 W 9 16.09 Partly Cloudy SCT075 18.8 0.4 29% 76.12 0.0
08 14:35 Calm 16.09 Fair CLR 17.4 -0.7 29% 76.15 0.0
08 14:15 S 9 16.09 Fair CLR 17.6 -0.9 29% 76.17 0.0
08 13:55 Calm 16.09 Fair CLR 17 -2.2 17.1 5.8 27% 76.2 0.0
08 13:35 Calm 16.09 Fair CLR 16.6 -0.4 32% 76.23 0.0
08 13:15 Calm 16.09 Fair CLR 16.1 -0.9 32% 76.25 0.0
08 12:55 S 6 16.09 Fair CLR 15.9 -0.1 34% 76.28 0.0
08 12:35 W 6 16.09 Fair CLR 15.3 -0.5 34% 76.3 0.0
08 12:15 SW 7 16.09 Fair CLR 14.8 -0.4 36% 76.33 0.0
08 11:55 S 9 16.09 Fair CLR 14.8 -0.2 36% 76.33 0.0
08 11:35 SW 6 16.09 Fair CLR 14.7 0 37% 76.33 0.0
08 11:15 Calm 16.09 Fair CLR 14.2 -0.2 37% 76.33 0.0
08 10:55 NE 9 16.09 Fair CLR 13.4 -0.1 40% 76.35 0.0
08 10:35 Calm 16.09 Fair CLR 12.6 0 42% 76.33 0.0
08 10:15 NW 6 16.09 Fair CLR 12.6 0.5 44% 76.35 0.0
08 09:55 N 6 16.09 Fair CLR 12.3 0.6 45% 76.35 0.0
08 09:35 Calm 16.09 Fair CLR 11.3 -0.7 44% 76.33 0.0
08 09:15 Calm 16.09 Fair CLR 10.5 1.2 53% 76.33 0.0
08 08:55 Calm 16.09 Fair CLR 9.6 2.6 62% 76.33 0.0
08 08:35 Calm 16.09 Fair CLR 8.7 1.6 61% 76.33 0.0
08 08:15 Calm 16.09 Fair CLR 7 2 71% 76.33 0.0
08 07:55 NW 7 16.09 Fair CLR 5.6 1.8 6 0.4 77% 4 76.3 0.0
08 07:35 NW 7 16.09 Fair CLR 4.8 1.5 79% 3 76.3 0.0
08 07:15 W 6 16.09 Fair CLR 3.6 1.2 85% 76.28 0.0
08 06:55 W 9 16.09 Fair CLR 2.2 0.1 86% -0 76.28 0.0
08 06:35 W 7 16.09 Fair CLR 0.5 -0.4 94% -2 76.28 0.0
08 06:15 W 6 16.09 Fair CLR 0.6 -0.4 93% 76.25 0.0
08 05:55 W 7 16.09 Fair CLR 1.3 0 91% -1 76.25 0.0
08 05:35 Calm 16.09 Fair CLR 2.1 -0.1 86% 76.25 0.0
08 05:15 Calm 16.09 Fair CLR 2.9 0 81% 76.23 0.0
08 04:55 Calm 16.09 Fair CLR 3.1 -0.1 80% 76.23 0.0
08 04:35 Calm 16.09 Fair CLR 3.9 0 76% 76.23 0.0
08 04:15 W 6 16.09 Fair CLR 3.4 -0.1 78% 76.23 0.0
08 03:55 Calm 16.09 Fair CLR 4.3 0 74% 76.2 0.0
08 03:35 SW 6 16.09 Fair CLR 5.1 0.6 73% 76.2 0.0
08 03:15 SW 7 16.09 Fair CLR 4.6 0 72% 3 76.17 0.0
08 02:55 SW 7 16.09 Fair CLR 5.2 0.2 70% 4 76.2 0.0
08 02:35 Calm 16.09 Fair CLR 5.8 0 67% 76.2 0.0
08 02:15 Calm 16.09 Fair CLR 5.7 0.4 69% 76.2 0.0
08 01:55 Calm 16.09 Fair CLR 5.9 0.4 12.2 5.9 68% 76.2 0.0
08 01:35 Calm 16.09 Fair CLR 6 0.9 70% 76.2 0.0
08 01:15 W 6 16.09 Fair CLR 6.8 0.8 66% 76.17 0.0
08 00:55 NW 6 16.09 Fair CLR 7.4 1.5 67% 76.15 0.0
08 00:35 NW 6 16.09 Fair CLR 7.3 1.7 68% 76.12 0.0
08 00:15 NW 6 16.09 Fair CLR 7.8 2.3 68% 76.12 0.0
07 23:55 NW 9 16.09 Fair CLR 9 2.5 64% 8 76.12 0.0
07 23:35 NW 9 16.09 Fair CLR 8.4 3.3 71% 7 76.1 0.0
07 23:15 NW 9 16.09 Fair CLR 7.8 3.4 74% 6 76.1 0.0
07 22:55 W 9 16.09 Fair CLR 8.5 3.5 71% 7 76.1 0.0
07 22:35 W 9 16.09 Fair CLR 9.2 3.6 68% 8 76.07 0.0
07 22:15 W 15 16.09 Fair CLR 10.2 3.7 64% 76.05 0.0
07 21:55 W 19 16.09 Fair CLR 10.2 3.8 65% 76.02 0.0
07 21:35 W 17 16.09 Fair CLR 10.6 3.7 63% 76 0.0
07 21:15 W 17 16.09 Fair CLR 10.6 4 64% 75.97 0.0
07 20:55 W 20 16.09 Fair CLR 11 3.8 61% 75.95 0.0
07 20:35 W 19 16.09 Fair CLR 11.3 3.9 61% 75.95 0.0
07 20:15 W 20 16.09 Fair CLR 11.5 4 60% 75.95 0.0
07 19:55 W 17 G 35 16.09 Fair CLR 12.3 4 15.4 12.1 57% 75.92 0.0
07 19:35 W 26 16.09 Fair CLR 12.9 3.6 53% 75.92 0.0
07 19:15 NW 26 G 35 16.09 Fair CLR 13.2 3.7 53% 75.9 0.0
07 18:55 NW 28 16.09 Fair CLR 13.6 4.1 53% 75.9 0.0
07 18:35 W 20 G 37 16.09 Partly Cloudy SCT043 13.8 4.1 52% 75.9 0.0
07 18:15 W 17 G 31 16.09 Mostly Cloudy BKN043 14.2 4.6 53% 75.9 0.0
07 17:55 W 24 G 31 16.09 Partly Cloudy SCT043 14.3 4.5 52% 75.87 0.0
07 17:35 NW 26 G 31 16.09 Partly Cloudy SCT037 14.5 4.9 53% 75.84 0.0
07 17:15 NW 19 G 28 16.09 Mostly Cloudy BKN037 BKN043 14.4 6 57% 75.84 0.0
07 16:15 NW 13 16.09 Mostly Cloudy BKN033 BKN039 14.2 6.8 61% 75.82 0.0
07 15:55 W 17 16.09 Mostly Cloudy SCT029 SCT033 BKN049 15 7.6 62% 75.79 0.0
07 15:35 W 9 16.09 Overcast OVC047 13.2 7.4 68% 75.84 0.0
07 15:15 W 11 16.09 Overcast SCT025 OVC045 13.1 7.1 67% 75.9 0.0
07 14:55 W 7 16.09 Overcast BKN025 OVC041 12.6 7 69% 75.9 0.0
07 14:35 N 9 16.09 Overcast SCT025 SCT031 OVC041 12.3 6.8 69% 75.92 0.0
07 14:15 NW 11 16.09 Overcast BKN025 BKN031 OVC037 12.5 7 69% 75.9 0.0
07 13:55 N 9 16.09 Overcast SCT023 OVC037 12.2 6.9 12.5 10 70% 75.9 0.0
07 13:35 N 7 16.09 Overcast OVC037 12.4 7.1 70% 75.9 0.0
07 13:15 N 7 16.09 Overcast OVC033 11.2 6 71% 75.92 0.0
07 12:55 NW 15 G 30 16.09 Overcast OVC033 10.7 5.7 71% 75.92 0.0
07 12:35 N 17 G 26 16.09 Overcast SCT028 OVC033 10.6 5.7 72% 75.92 0.0
07 12:15 NW 19 16.09 Overcast OVC026 10.3 5.7 73% 75.92 0.0
07 11:55 N 13 16.09 Overcast OVC024 10.1 6 76% 75.92 0.0
07 11:35 NW 7 16.09 Overcast OVC024 10.4 6.2 75% 75.95 0.0
07 11:15 N 9 16.09 Overcast OVC022 10.5 6.5 77% 75.95 0.0
07 10:55 N 11 16.09 Overcast OVC022 10.1 6.9 81% 75.95 0.0
07 10:35 NW 13 8.05 Light Rain OVC020 10 7 82% 8 75.95 0.0
07 10:15 NW 7 16.09 Overcast OVC018 10.5 7 79% 75.95 0.0
07 09:55 N 13 16.09 Overcast OVC016 10.7 7.6 81% 75.95 0.0
07 09:35 N 9 16.09 Overcast OVC014 10.6 8 84% 75.92 0.0
07 09:15 N 11 16.09 Overcast OVC010 10.3 8 86% 75.95 0.0
07 08:55 N 9 16.09 Overcast OVC012 10.6 8.6 88% 75.97 0.0
07 08:35 N 11 16.09 Overcast OVC012 10.8 8.8 88% 75.95 0.0
07 08:15 N 7 16.09 Light Drizzle SCT012 OVC021 10.7 9 89% 75.95 0.0
07 07:55 NW 9 16.09 Overcast SCT014 OVC021 10.6 8.7 14.5 10.6 88% 75.92 0.0 0.03
07 07:35 N 9 16.09 Overcast SCT014 OVC021 10.7 9 89% 75.92 0.0
07 07:15 NW 11 16.09 Overcast SCT014 OVC021 10.7 9.1 90% 75.92 0.0
07 06:55 N 9 16.09 Overcast SCT012 OVC021 10.6 9 90% 75.92 0.0
07 06:35 N 7 16.09 Overcast SCT012 OVC023 10.8 9.1 89% 75.9 0.0
07 06:15 N 6 16.09 Overcast SCT009 OVC023 11 9.3 89% 75.87 0.0
07 05:55 NW 15 16.09 Light Rain BKN009 OVC021 11.2 9.6 90% 75.9 0.0
07 05:35 N 15 16.09 Overcast SCT014 OVC021 11.9 9.8 87% 75.9 0.0
07 05:15 NW 9 16.09 Overcast OVC017 12 10 88% 75.87 0.0
07 04:55 NW 11 16.09 Overcast BKN015 OVC023 12 10.1 88% 75.87 0.0 0.03
07 04:35 N 9 16.09 Light Rain OVC023 12.1 10.5 90% 75.84 0.0
07 04:15 NW 13 16.09 Light Rain BKN025 BKN031 OVC100 12.3 10.6 89% 75.9 0.0
07 03:55 N 9 16.09 Overcast BKN028 BKN049 OVC110 12.5 10.9 90% 75.87 0.0
07 03:35 NW 9 16.09 Overcast SCT021 SCT049 OVC120 13 11.5 91% 75.9 0.0
07 03:15 NW 13 16.09 Overcast BKN021 BKN030 OVC120 13.1 11.7 91% 75.9 0.0
07 02:55 NW 7 16.09 Overcast SCT012 BKN020 OVC027 13.5 12.1 91% 75.9 0.0 0.03
07 02:35 NW 9 16.09 Overcast SCT010 SCT013 OVC020 14 12.7 92% 75.9 0.0 0.03
07 02:15 N 6 16.09 Overcast SCT010 BKN021 OVC100 14.3 13.7 96% 75.9 0.0 0.03
07 01:55 Calm 16.09 Overcast SCT019 OVC110 14.5 14 19.6 14.5 97% 75.9 0.0 0.33
07 01:35 Calm 16.09 Mostly Cloudy BKN110 14.5 13.8 96% 75.92 0.0
07 01:15 N 6 16.09 Mostly Cloudy BKN120 14.6 13.9 96% 75.92 0.0
07 00:55 W 6 16.09 Overcast SCT095 OVC110 15.1 14.2 94% 75.92 0.0
07 00:35 W 7 16.09 Light Rain SCT070 OVC095 15 14 94% 75.92 0.0
07 00:15 S 6 16.09 Light Drizzle OVC070 15.1 14.1 94% 75.9 0.0
06 23:55 SW 6 16.09 Overcast BKN080 BKN090 OVC120 15 14 94% 75.92 0.0
06 23:35 W 6 16.09 Mostly Cloudy SCT100 BKN120 15.2 13.7 91% 75.92 0.0
06 23:15 Calm 16.09 Light Rain SCT025 SCT036 OVC095 15.5 14.1 91% 75.97 0.0
06 22:55 Calm 16.09 Light Rain SCT014 SCT027 OVC085 15.5 14.5 94% 76.05 0.0 0.03 0.33
06 22:35 Calm 16.09 Overcast SCT016 SCT049 OVC085 15.5 14.4 93% 76.02 0.0 0.03
06 22:15 W 7 16.09 Light Rain BKN085 OVC110 15.8 14.3 91% 75.97 0.0
06 21:55 SW 15 11.27 Rain SCT040 SCT055 OVC085 15.7 14.1 90% 76 0.0 0.3
06 21:35 W 15 11.27 Heavy Rain SCT027 BKN037 OVC070 16.4 14.7 90% 75.95 0.0 0.18
06 21:15 Calm 6.44 Rain SCT030 BKN048 OVC060 17.2 14.8 86% 75.92 0.0 0.1
06 20:55 W 6 16.09 Light Rain OVC060 18.4 14.4 78% 75.92 0.0
06 20:35 W 9 16.09 Overcast BKN060 OVC090 19 14 73% 75.92 0.0
06 20:15 SW 19 16.09 Mostly Cloudy SCT050 BKN090 BKN120 19.1 14 72% 75.87 0.0
06 19:55 SW 22 G 37 16.09 Overcast OVC050 19.6 13.5 21.6 17.2 68% 75.87 0.0
06 19:35 SW 30 G 43 16.09 Mostly Cloudy BKN050 20 13.5 66% 75.87 0.0
06 19:15 W 20 G 30 16.09 Partly Cloudy SCT050 19.8 14 69% 75.9 0.0
06 18:55 W 17 G 26 16.09 Fair CLR 20.3 14.1 68% 75.87 0.0
06 18:35 W 17 G 33 16.09 Mostly Cloudy SCT041 SCT049 BKN055 20.3 14 67% 75.87 0.0
06 18:15 W 22 G 37 16.09 Overcast BKN041 OVC049 20.1 13.8 67% 75.92 0.0
06 17:55 SW 22 G 35 16.09 Overcast OVC042 20.4 13.9 66% 75.9 0.0
06 17:35 W 19 G 37 16.09 Mostly Cloudy SCT033 BKN044 20.6 13.9 66% 75.9 0.0
06 17:15 W 22 16.09 Fair CLR 21.6 14.5 64% 75.87 0.0
06 16:55 W 19 G 39 16.09 Partly Cloudy SCT041 20.6 14.2 67% 75.84 0.0
06 16:35 W 24 16.09 Partly Cloudy SCT029 SCT043 20.9 14.5 67% 75.87 0.0
06 16:15 W 26 16.09 Mostly Cloudy SCT029 BKN043 20.5 14.4 68% 75.9 0.0
06 15:55 SW 26 G 31 16.09 Partly Cloudy SCT025 SCT031 SCT044 20.5 14.9 70% 75.9 0.0
06 15:35 W 19 G 30 16.09 Overcast OVC033 19.7 14.6 73% 75.9 0.0
06 15:15 W 28 G 39 16.09 Overcast SCT029 OVC035 19.2 14.1 72% 75.9 0.0
06 14:55 W 20 G 28 16.09 Overcast OVC028 19 14.5 75% 75.9 0.0
06 14:35 W 20 16.09 Overcast SCT015 SCT020 OVC026 18.5 15 80% 75.92 0.0
06 14:15 SW 13 16.09 Overcast SCT015 BKN021 OVC035 17.4 14.8 85% 75.92 0.0
06 13:55 SW 20 G 28 16.09 Mostly Cloudy SCT017 SCT023 BKN037 17.5 14.9 17.5 13.7 85% 75.92 0.0 0.28
06 13:35 SW 19 16.09 Light Drizzle SCT028 SCT044 OVC090 16.7 14.8 89% 75.92 0.0
06 13:15 S 15 16.09 Light Rain OVC090 16.3 14.3 88% 76 0.0
06 12:55 S 13 16.09 Light Rain SCT036 OVC090 16.3 14.5 89% 76.02 0.0 0.03
06 12:35 SW 13 11.27 Light Rain SCT047 SCT060 OVC090 16 14.1 89% 76.05 0.0
06 12:15 SW 11 16.09 Light Rain SCT037 BKN055 OVC085 16 14.1 89% 76.05 0.0
06 11:55 SW 15 16.09 Overcast SCT035 BKN049 OVC080 15.7 14 90% 76.02 0.0
06 11:35 SW 15 16.09 Light Rain SCT009 BKN042 OVC085 15.7 13.9 89% 76.02 0.0
06 11:15 SW 9 16.09 Light Drizzle SCT009 SCT033 BKN050 15.6 13.7 89% 75.97 0.0
06 10:55 SW 15 16.09 Overcast SCT034 SCT048 OVC085 15.1 13.3 89% 76 0.0 0.1 0.25
06 10:35 SW 15 11.27 Light Rain SCT039 BKN060 OVC085 14.3 13 92% 76 0.0 0.1
06 10:15 SW 13 16.09 Light Rain SCT039 BKN045 OVC085 14 12.7 92% 76 0.0 0.03
06 09:55 SW 13 11.27 Heavy Rain SCT050 SCT070 OVC095 13.9 12.5 91% 76 0.0 0.13
06 09:35 SW 15 16.09 Light Rain SCT037 SCT050 OVC095 13.8 12.3 91% 75.97 0.0 0.08
06 09:15 W 9 8.05 Rain SCT055 OVC095 13.7 11.8 88% 76 0.0 0.05
06 08:55 SW 7 16.09 Light Rain OVC095 14.2 11.5 84% 75.95 0.0
06 08:35 SW 17 16.09 Rain OVC095 14.6 11.1 80% 75.95 0.0
06 08:15 SW 15 16.09 Light Rain SCT039 SCT050 BKN095 15.1 10.7 75% 75.92 0.0
06 07:55 SW 11 16.09 Partly Cloudy SCT046 SCT065 SCT075 15.2 10.3 17 14.8 73% 75.9 0.0
06 07:35 S 13 16.09 Mostly Cloudy SCT046 SCT075 BKN100 15.1 10.1 72% 75.9 0.0
06 07:15 S 9 16.09 Overcast OVC100 15 10 72% 75.87 0.0
06 06:55 SW 9 16.09 Overcast SCT075 BKN090 OVC110 15 9.7 71% 75.87 0.0
06 06:35 SW 15 16.09 Overcast BKN075 OVC090 15 9.7 71% 75.84 0.0
06 06:15 S 17 G 26 16.09 Overcast OVC100 14.9 9.6 71% 75.84 0.0
06 05:55 S 15 G 28 16.09 Overcast OVC100 14.8 9.5 71% 75.84 0.0
06 05:35 S 17 G 26 16.09 Overcast OVC100 15.1 9.2 68% 75.84 0.0
06 05:15 SW 17 G 26 16.09 Mostly Cloudy BKN110 15 9.1 68% 75.87 0.0
06 04:55 SW 15 16.09 Fair CLR 15 8.6 66% 75.87 0.0
06 04:35 SW 9 16.09 Partly Cloudy SCT065 SCT090 SCT120 15.2 8.1 63% 75.9 0.0
06 04:15 S 19 G 26 16.09 Partly Cloudy SCT090 SCT110 15.6 7.9 60% 75.9 0.0
06 03:55 S 13 16.09 Mostly Cloudy BKN110 16 7.6 58% 75.9 0.0
06 03:35 S 17 16.09 Light Drizzle SCT070 SCT095 BKN120 16 7.5 57% 75.92 0.0
06 03:15 S 19 G 28 16.09 Mostly Cloudy SCT070 SCT085 BKN110 16.5 7.2 54% 75.9 0.0
06 02:55 S 13 G 31 16.09 Partly Cloudy SCT060 SCT110 16.8 7.1 53% 75.9 0.0
06 02:15 S 11 16.09 Partly Cloudy SCT100 16.7 7 53% 75.92 0.0
06 01:55 SW 19 16.09 Partly Cloudy SCT090 16.4 6.9 20.1 15 54% 75.92 0.0
06 01:35 SW 15 16.09 Mostly Cloudy BKN090 16.7 6.7 52% 75.95 0.0
06 01:15 SW 13 16.09 Partly Cloudy SCT090 16.4 6.7 53% 76 0.0
06 00:55 SW 15 16.09 Fair CLR 15.7 6.7 55% 75.97 0.0
06 00:35 SW 9 16.09 Partly Cloudy SCT090 15.2 6.5 56% 76 0.0
06 00:15 SW 6 16.09 Fair CLR 16.2 6 51% 76 0.0
05 23:55 SW 11 16.09 Fair CLR 16.5 5.9 50% 76 0.0
05 23:35 SW 13 16.09 Partly Cloudy SCT120 17.5 5.5 45% 76 0.0
05 23:15 S 13 16.09 Partly Cloudy SCT120 17.2 5.5 46% 76 0.0
05 22:55 SW 15 16.09 Fair CLR 17.5 5.2 44% 76.02 0.0
05 22:35 SW 15 16.09 Fair CLR 17.6 5.1 44% 76.02 0.0
05 22:15 SW 13 16.09 Partly Cloudy SCT095 17.5 5.1 44% 76.02 0.0
05 21:55 S 7 16.09 Mostly Cloudy SCT095 BKN120 18 5 43% 76.02 0.0
05 21:35 S 11 16.09 Partly Cloudy SCT110 18.5 4.9 41% 76.02 0.0
Date Time (edt) Wind (kph) Vis. (km) Weather Sky Cond. Air Dwpt Max. Min. Relative Humidity Wind Chill (°C) Heat Index (°C) altimeter (cm) sea level (mb) 1 hr 3 hr 6 hr
6 hour
Temperature (ºC) Pressure Precipitation (cm)